Time;durP1;ratioP1;P1;durP2;ratioP2;P2;SDS_P1;SDS_P2;PMS_P1;PMS_P2;Temp;Humidity;BMP_temperature;BMP_pressure;BME280_temperature;BME280_humidity;BME280_pressure;Samples;Min_cycle;Max_cycle;Signal;HPM_P1;HPM_P2
2022/10/05 00:00:16;;;;;;;6.55;3.08;;;15.60;99.90;;;;;;6282588;22;20015;-88
2022/10/05 00:02:57;;;;;;;5.43;2.80;;;15.60;99.90;;;;;;6256910;22;20050;-90
2022/10/05 00:05:32;;;;;;;5.50;2.60;;;15.60;99.90;;;;;;6282948;22;20019;-95
2022/10/05 00:08:13;;;;;;;6.47;2.85;;;15.60;99.90;;;;;;6257455;22;20019;-94
2022/10/05 00:10:42;;;;;;;5.03;2.42;;;15.60;99.90;;;;;;6282891;22;20019;-92
2022/10/05 00:13:16;;;;;;;6.68;2.60;;;15.70;99.90;;;;;;6282932;22;20018;-93
2022/10/05 00:15:42;;;;;;;9.57;3.13;;;15.60;99.90;;;;;;6256782;22;20012;-94
2022/10/05 00:18:27;;;;;;;6.55;2.50;;;15.60;99.90;;;;;;6284549;22;20542;-92
2022/10/05 00:21:27;;;;;;;5.45;2.30;;;15.60;99.90;;;;;;6282821;22;20022;-93
2022/10/05 00:24:08;;;;;;;5.90;2.20;;;15.60;99.90;;;;;;6256735;22;20019;-92
2022/10/05 00:26:34;;;;;;;5.60;2.67;;;15.70;99.90;;;;;;6256250;22;20018;-93
2022/10/05 00:29:01;;;;;;;6.82;3.17;;;15.70;99.90;;;;;;6231538;22;20047;-93
2022/10/05 00:31:31;;;;;;;6.65;3.03;;;15.70;99.90;;;;;;6256645;22;20503;-94
2022/10/05 00:34:06;;;;;;;9.13;2.80;;;15.70;99.90;;;;;;6231482;22;20050;-96
2022/10/05 00:36:32;;;;;;;6.63;2.50;;;15.70;99.90;;;;;;6257236;22;20096;-94
2022/10/05 00:39:00;;;;;;;5.25;2.60;;;15.60;99.90;;;;;;6231850;22;20027;-91
2022/10/05 00:41:37;;;;;;;6.25;2.90;;;15.60;99.90;;;;;;6256853;22;20093;-93
2022/10/05 00:44:11;;;;;;;6.55;2.53;;;15.70;99.90;;;;;;6282158;22;20022;-89
2022/10/05 00:46:50;;;;;;;7.93;2.92;;;15.60;99.90;;;;;;6256145;22;20023;-91
2022/10/05 00:49:48;;;;;;;6.80;2.47;;;15.60;99.90;;;;;;6257430;22;20058;-94
2022/10/05 00:52:22;;;;;;;;;;;15.70;99.90;;;;;;6200460;22;20392;-94
2022/10/05 00:55:02;;;;;;;4.45;1.95;;;15.70;99.90;;;;;;6257138;22;19965;-95
2022/10/05 00:57:33;;;;;;;5.88;2.65;;;15.60;99.90;;;;;;6257139;22;20340;-95
2022/10/05 01:00:07;;;;;;;5.68;2.58;;;15.70;99.90;;;;;;6256705;22;20023;-93
2022/10/05 01:03:02;;;;;;;4.32;1.90;;;15.60;99.90;;;;;;6256624;22;20019;-93
2022/10/05 01:05:53;;;;;;;7.45;2.55;;;15.60;99.90;;;;;;6257034;22;20049;-95
2022/10/05 01:08:37;;;;;;;;;;;15.60;99.90;;;;;;6282028;22;20023;-94
2022/10/05 01:11:15;;;;;;;6.18;2.25;;;15.60;99.90;;;;;;6256022;22;19921;-92
2022/10/05 01:14:25;;;;;;;5.85;2.20;;;15.60;99.90;;;;;;6282131;22;20049;-95
2022/10/05 01:17:12;;;;;;;4.35;1.77;;;15.60;99.90;;;;;;6239667;22;20470;-94
2022/10/05 01:19:44;;;;;;;4.85;2.00;;;15.60;99.90;;;;;;6256772;22;20022;-95
2022/10/05 01:22:50;;;;;;;3.88;1.60;;;15.60;99.90;;;;;;6255821;22;20513;-88
2022/10/05 01:25:35;;;;;;;4.40;1.90;;;15.60;99.90;;;;;;6281530;22;20042;-94
2022/10/05 01:28:02;;;;;;;3.75;1.70;;;15.60;99.90;;;;;;6255902;22;20015;-95
2022/10/05 01:30:36;;;;;;;5.72;1.70;;;15.60;99.90;;;;;;6256121;22;20029;-90
2022/10/05 01:33:15;;;;;;;4.25;2.05;;;15.60;99.90;;;;;;6281256;22;20017;-90
2022/10/05 01:36:08;;;;;;;4.07;1.70;;;15.60;99.90;;;;;;6255814;22;20023;-95
2022/10/05 01:39:01;;;;;;;3.60;1.50;;;15.60;99.90;;;;;;6281899;22;20499;-94
2022/10/05 01:41:30;;;;;;;3.83;1.52;;;15.60;99.90;;;;;;6255938;22;20019;-88
2022/10/05 01:44:12;;;;;;;5.10;1.63;;;15.60;99.90;;;;;;6281232;22;20042;-94
2022/10/05 01:47:07;;;;;;;4.35;1.85;;;15.60;99.90;;;;;;6255724;22;20098;-95
2022/10/05 01:49:36;;;;;;;3.65;1.48;;;15.60;99.90;;;;;;6248531;22;20015;-94
2022/10/05 01:52:21;;;;;;;3.78;1.70;;;15.60;99.90;;;;;;6255785;22;20016;-91
2022/10/05 01:55:01;;;;;;;4.45;1.73;;;15.60;99.90;;;;;;6256115;22;20011;-94
2022/10/05 01:58:11;;;;;;;3.88;1.65;;;15.60;99.90;;;;;;6256552;22;20050;-93
2022/10/05 02:01:11;;;;;;;5.40;1.92;;;15.60;99.90;;;;;;6266237;22;20003;-85
2022/10/05 02:06:53;;;;;;;4.13;1.77;;;15.60;99.90;;;;;;6307716;22;20027;-88
2022/10/05 02:09:29;;;;;;;4.82;1.80;;;15.60;99.90;;;;;;6247650;22;20019;-91
2022/10/05 02:12:49;;;;;;;3.95;1.75;;;15.60;99.90;;;;;;6255290;22;20018;-93
2022/10/05 02:19:00;;;;;;;3.85;1.70;;;15.60;99.90;;;;;;6273725;22;20462;-95
2022/10/05 02:21:41;;;;;;;4.82;2.30;;;15.60;99.90;;;;;;6255073;22;20019;-89
2022/10/05 02:24:18;;;;;;;6.35;2.20;;;15.60;99.90;;;;;;6279374;22;20076;-90
2022/10/05 02:27:10;;;;;;;5.68;2.45;;;15.60;99.90;;;;;;6255250;22;20022;-94
2022/10/05 02:29:41;;;;;;;4.95;1.95;;;15.60;99.90;;;;;;6255432;22;20011;-94
2022/10/05 02:32:31;;;;;;;4.55;2.00;;;15.60;99.90;;;;;;6255768;22;20024;-94
2022/10/05 02:35:14;;;;;;;5.50;1.95;;;15.60;99.90;;;;;;6234572;22;20073;-90
2022/10/05 02:37:55;;;;;;;4.38;1.95;;;15.60;99.90;;;;;;6281004;22;20019;-89
2022/10/05 02:41:00;;;;;;;4.65;2.00;;;15.60;99.90;;;;;;6272911;22;20011;-88
2022/10/05 02:43:40;;;;;;;4.35;1.98;;;15.50;99.90;;;;;;6253896;22;20098;-94
2022/10/05 02:46:44;;;;;;;6.20;2.38;;;15.50;99.90;;;;;;6256032;22;20073;-90
2022/10/05 02:49:16;;;;;;;4.10;1.73;;;15.50;99.90;;;;;;6281570;22;20062;-96
2022/10/05 02:52:12;;;;;;;3.95;1.70;;;15.50;99.90;;;;;;6255448;22;20026;-89
2022/10/05 02:54:53;;;;;;;4.78;1.98;;;15.50;99.90;;;;;;6256346;22;20038;-93
2022/10/05 02:57:31;;;;;;;5.25;1.90;;;15.50;99.90;;;;;;6255861;22;20019;-95
2022/10/05 03:00:03;;;;;;;4.88;1.95;;;15.50;99.90;;;;;;6255430;22;20548;-93
2022/10/05 03:02:35;;;;;;;4.80;2.00;;;15.50;99.90;;;;;;6255907;22;20015;-95
2022/10/05 03:05:24;;;;;;;5.18;1.83;;;15.50;99.90;;;;;;6255441;22;20022;-90
2022/10/05 03:07:56;;;;;;;4.47;1.80;;;15.50;99.90;;;;;;6255260;22;20016;-94
2022/10/05 03:10:31;;;;;;;4.95;1.75;;;15.60;99.90;;;;;;6256572;22;20466;-95
2022/10/05 03:13:38;;;;;;;4.95;2.05;;;15.60;99.90;;;;;;6283115;22;20023;-95
2022/10/05 03:16:33;;;;;;;4.43;1.92;;;15.60;99.90;;;;;;6283011;22;20157;-95
2022/10/05 03:19:18;;;;;;;5.60;2.10;;;15.60;99.90;;;;;;6204119;22;20098;-96
2022/10/05 03:21:54;;;;;;;4.15;1.88;;;15.50;99.90;;;;;;6282954;22;20019;-95
2022/10/05 03:24:39;;;;;;;5.10;1.80;;;15.60;99.90;;;;;;6257839;22;20534;-90
2022/10/05 03:27:33;;;;;;;4.43;1.35;;;15.50;99.90;;;;;;6257747;22;20015;-96
2022/10/05 03:30:15;;;;;;;3.72;1.50;;;15.50;99.90;;;;;;6257183;22;20038;-96
2022/10/05 03:32:54;;;;;;;4.22;1.92;;;15.60;99.90;;;;;;6257032;22;20347;-96
2022/10/05 03:35:52;;;;;;;4.28;1.67;;;15.60;99.90;;;;;;6257111;22;20062;-94
2022/10/05 03:38:29;;;;;;;3.92;1.48;;;15.60;99.90;;;;;;6231385;22;20090;-96
2022/10/05 03:41:03;;;;;;;;;;;15.60;99.90;;;;;;6257867;22;20015;-93
2022/10/05 03:43:52;;;;;;;3.67;1.48;;;15.60;99.90;;;;;;6283041;22;19915;-94
2022/10/05 03:46:36;;;;;;;3.72;1.60;;;15.60;99.90;;;;;;6283384;22;20023;-94
2022/10/05 03:49:30;;;;;;;4.40;1.60;;;15.60;99.90;;;;;;6283147;22;20019;-94
2022/10/05 03:52:08;;;;;;;3.58;1.40;;;15.60;99.90;;;;;;6257402;22;20089;-95
2022/10/05 03:54:40;;;;;;;3.45;1.75;;;15.60;99.90;;;;;;6257470;22;20069;-94
2022/10/05 03:57:16;;;;;;;4.60;1.40;;;15.60;99.90;;;;;;6256867;22;20445;-90
2022/10/05 03:59:54;;;;;;;4.38;1.40;;;15.60;99.90;;;;;;6257129;22;20216;-95
2022/10/05 04:02:32;;;;;;;3.97;1.50;;;15.60;99.90;;;;;;6257133;22;20011;-95
2022/10/05 04:05:09;;;;;;;3.58;1.52;;;15.50;99.90;;;;;;6257060;22;20019;-96
2022/10/05 04:08:12;;;;;;;4.20;1.55;;;15.50;99.90;;;;;;6257028;22;20015;-96
2022/10/05 04:10:43;;;;;;;3.22;1.27;;;15.50;99.90;;;;;;6258272;22;20023;-95
2022/10/05 04:13:27;;;;;;;4.82;1.55;;;15.50;99.90;;;;;;6256767;22;20051;-94
2022/10/05 04:16:08;;;;;;;3.83;1.85;;;15.50;99.90;;;;;;6257536;22;20405;-95
2022/10/05 04:18:42;;;;;;;2.83;1.15;;;15.50;99.90;;;;;;6281848;22;20034;-90
2022/10/05 04:21:18;;;;;;;3.83;1.70;;;15.50;99.90;;;;;;6257668;22;20022;-90
2022/10/05 04:23:59;;;;;;;4.57;2.00;;;15.50;99.90;;;;;;6256825;22;20094;-94
2022/10/05 04:26:47;;;;;;;5.95;1.58;;;15.50;99.90;;;;;;6257333;22;20069;-91
2022/10/05 04:29:26;;;;;;;3.85;1.65;;;15.50;99.90;;;;;;6258486;22;20015;-92
2022/10/05 04:32:04;;;;;;;4.53;1.58;;;15.50;99.90;;;;;;6257455;22;20098;-94
2022/10/05 04:34:52;;;;;;;4.68;1.70;;;15.50;99.90;;;;;;6257176;22;20023;-95
2022/10/05 04:37:39;;;;;;;4.82;2.10;;;15.50;99.90;;;;;;6258115;22;20015;-94
2022/10/05 04:40:33;;;;;;;4.97;2.05;;;15.50;99.90;;;;;;6257515;22;20026;-96
2022/10/05 04:42:59;;;;;;;3.15;1.52;;;15.50;99.90;;;;;;6285601;22;20019;-95
2022/10/05 04:45:25;;;;;;;3.90;1.63;;;15.50;99.90;;;;;;6272281;22;20033;-92
2022/10/05 04:48:05;;;;;;;5.13;1.70;;;15.50;99.90;;;;;;6268244;22;20019;-94
2022/10/05 04:50:36;;;;;;;3.97;1.58;;;15.40;99.90;;;;;;6282729;22;20095;-94
2022/10/05 04:53:27;;;;;;;4.00;1.70;;;15.50;99.90;;;;;;6257645;22;20346;-92
2022/10/05 04:55:52;;;;;;;5.57;1.90;;;15.50;99.90;;;;;;6257085;22;20015;-92
2022/10/05 04:58:32;;;;;;;4.47;1.70;;;15.40;99.90;;;;;;6257419;22;20076;-96
2022/10/05 05:01:19;;;;;;;3.17;1.42;;;15.50;99.90;;;;;;6257276;22;20007;-91
2022/10/05 05:03:48;;;;;;;4.30;1.77;;;15.50;99.90;;;;;;6283358;22;20022;-96
2022/10/05 05:06:31;;;;;;;3.28;1.42;;;15.50;99.90;;;;;;6281862;22;20019;-89
2022/10/05 05:09:22;;;;;;;5.57;2.10;;;15.40;99.90;;;;;;6255838;22;20444;-89
2022/10/05 05:11:51;;;;;;;5.88;2.22;;;15.40;99.90;;;;;;6256245;22;20022;-95
2022/10/05 05:14:16;;;;;;;5.18;2.28;;;15.40;99.90;;;;;;6257122;22;20093;-93
2022/10/05 05:16:47;;;;;;;5.03;1.88;;;15.40;99.90;;;;;;6256263;22;20341;-89
2022/10/05 05:19:13;;;;;;;5.18;1.92;;;15.40;99.90;;;;;;6260401;22;20019;-93
2022/10/05 05:22:09;;;;;;;5.35;2.20;;;15.40;99.90;;;;;;6275560;22;20015;-88
2022/10/05 05:24:53;;;;;;;5.22;2.00;;;15.40;99.90;;;;;;6269771;22;20448;-93
2022/10/05 05:27:33;;;;;;;6.28;2.08;;;15.40;99.90;;;;;;6281711;22;20026;-89
2022/10/05 05:30:14;;;;;;;6.10;2.80;;;15.40;99.90;;;;;;6257061;22;20015;-92
2022/10/05 05:32:44;;;;;;;5.95;2.20;;;15.40;99.90;;;;;;6256737;22;20086;-95
2022/10/05 05:35:35;;;;;;;6.03;2.17;;;15.40;99.90;;;;;;6256977;22;20090;-91
2022/10/05 05:38:22;;;;;;;5.88;2.35;;;15.40;99.90;;;;;;6282417;22;20015;-92
2022/10/05 05:40:52;;;;;;;;;;;15.40;99.90;;;;;;6256809;22;20031;-96
2022/10/05 05:43:25;;;;;;;5.30;2.15;;;15.30;99.90;;;;;;6282626;22;19915;-93
2022/10/05 05:46:24;;;;;;;6.20;2.42;;;15.30;99.90;;;;;;6256878;22;20030;-92
2022/10/05 05:48:51;;;;;;;6.47;2.70;;;15.40;99.90;;;;;;6256485;22;20015;-96
2022/10/05 05:51:27;;;;;;;4.97;2.00;;;15.40;99.90;;;;;;6256163;22;20057;-94
2022/10/05 05:54:14;;;;;;;5.20;2.40;;;15.40;99.90;;;;;;6257868;22;20011;-96
2022/10/05 05:56:48;;;;;;;5.90;2.22;;;15.40;99.90;;;;;;6257628;22;20026;-91
2022/10/05 05:59:24;;;;;;;5.60;1.92;;;15.40;99.90;;;;;;6256897;22;20062;-92
2022/10/05 06:02:12;;;;;;;6.90;2.28;;;15.40;99.90;;;;;;6282528;22;20019;-93
2022/10/05 06:04:46;;;;;;;3.83;1.60;;;15.30;99.90;;;;;;6256818;22;20020;-92
2022/10/05 06:07:19;;;;;;;4.90;2.30;;;15.30;99.90;;;;;;6255797;22;20511;-91
2022/10/05 06:09:52;;;;;;;5.80;2.30;;;15.40;99.90;;;;;;6254018;22;20023;-96
2022/10/05 06:12:27;;;;;;;5.50;2.42;;;15.30;99.90;;;;;;6254396;22;20090;-93
2022/10/05 06:19:24;;;;;;;4.63;1.70;;;15.30;99.90;;;;;;6309836;22;20015;-96
2022/10/05 06:22:05;;;;;;;5.32;1.88;;;15.30;99.90;;;;;;6256758;22;20019;-95
2022/10/05 06:25:01;;;;;;;4.60;2.03;;;15.40;99.90;;;;;;6256851;22;20011;-92
2022/10/05 06:27:55;;;;;;;4.32;1.90;;;15.40;99.90;;;;;;6257237;22;20020;-90
2022/10/05 06:30:58;;;;;;;4.88;2.08;;;15.40;99.90;;;;;;6258329;22;20053;-96
2022/10/05 06:33:41;;;;;;;5.10;2.15;;;15.40;99.90;;;;;;6258422;22;20020;-96
2022/10/05 06:36:31;;;;;;;6.97;2.58;;;15.30;99.90;;;;;;6285432;22;20026;-96
2022/10/05 06:39:34;;;;;;;3.63;1.70;;;15.30;99.90;;;;;;6259707;22;20054;-95
2022/10/05 06:42:54;;;;;;;4.03;2.03;;;15.40;99.90;;;;;;6256813;22;20011;-95
2022/10/05 06:45:34;;;;;;;;;;;15.40;99.90;;;;;;6282526;22;20472;-95
2022/10/05 06:48:24;;;;;;;5.00;2.28;;;15.40;99.90;;;;;;6262351;22;19922;-96
2022/10/05 06:51:22;;;;;;;4.57;1.98;;;15.40;99.90;;;;;;6260462;22;20015;-96
2022/10/05 06:54:25;;;;;;;5.53;2.35;;;15.40;99.90;;;;;;6260098;22;20011;-96
2022/10/05 06:57:47;;;;;;;5.60;2.03;;;15.40;99.90;;;;;;6260690;22;20072;-95
2022/10/05 07:00:34;;;;;;;5.00;2.03;;;15.40;99.90;;;;;;6283721;22;20015;-93
2022/10/05 07:03:09;;;;;;;6.93;2.17;;;15.40;99.90;;;;;;6259750;22;20043;-95
2022/10/05 07:06:05;;;;;;;3.58;1.60;;;15.40;99.90;;;;;;6261171;22;20020;-92
2022/10/05 07:08:39;;;;;;;3.92;1.90;;;15.40;99.90;;;;;;6258677;22;20077;-94
2022/10/05 07:11:23;;;;;;;4.57;1.98;;;15.40;99.90;;;;;;6285660;22;20460;-96
2022/10/05 07:14:28;;;;;;;4.63;1.80;;;15.40;99.90;;;;;;6260070;22;20094;-95
2022/10/05 07:17:24;;;;;;;4.82;1.77;;;15.40;99.90;;;;;;6286391;22;20019;-94
2022/10/05 07:20:02;;;;;;;6.38;1.80;;;15.50;99.90;;;;;;6260784;22;20058;-94
2022/10/05 07:22:55;;;;;;;4.40;1.77;;;15.40;99.90;;;;;;6260055;22;20016;-94
2022/10/05 07:25:30;;;;;;;6.30;2.20;;;15.50;99.90;;;;;;6263481;22;20022;-96
2022/10/05 07:28:12;;;;;;;4.80;2.08;;;15.50;99.90;;;;;;6278921;22;20003;-90
2022/10/05 07:30:53;;;;;;;5.32;1.80;;;15.50;99.90;;;;;;6283598;22;20003;-95
2022/10/05 07:33:44;;;;;;;4.10;1.60;;;15.50;99.90;;;;;;6264018;22;20065;-96
2022/10/05 07:39:26;;;;;;;4.35;1.83;;;15.50;99.90;;;;;;6265605;22;20030;-93
2022/10/05 07:42:22;;;;;;;4.07;1.92;;;15.50;99.90;;;;;;6258729;22;20015;-96
2022/10/05 07:44:52;;;;;;;5.45;2.05;;;15.50;99.90;;;;;;6257529;22;20019;-95
2022/10/05 07:47:27;;;;;;;4.88;1.48;;;15.50;99.90;;;;;;6283824;22;20012;-94
2022/10/05 07:50:21;;;;;;;3.30;1.50;;;15.50;99.90;;;;;;6258150;22;20511;-94
2022/10/05 07:53:13;;;;;;;3.92;1.70;;;15.50;99.90;;;;;;6258052;22;20019;-93
2022/10/05 07:56:12;;;;;;;2.85;1.35;;;15.50;99.90;;;;;;6239029;22;20336;-96
2022/10/05 07:58:46;;;;;;;3.70;1.45;;;15.60;99.90;;;;;;6257811;22;20011;-95
2022/10/05 08:01:28;;;;;;;3.10;1.40;;;15.60;99.90;;;;;;6257686;22;20015;-96
2022/10/05 08:04:03;;;;;;;4.13;1.50;;;15.60;99.90;;;;;;6280526;22;20034;-94
2022/10/05 08:06:49;;;;;;;3.10;1.48;;;15.60;99.90;;;;;;6271865;22;20061;-93
2022/10/05 08:09:53;;;;;;;5.03;1.88;;;15.60;99.90;;;;;;6258298;22;20023;-94
2022/10/05 08:12:38;;;;;;;4.28;1.23;;;15.60;99.90;;;;;;6258091;22;20065;-96
2022/10/05 08:15:21;;;;;;;3.17;1.27;;;15.60;99.90;;;;;;6259507;22;20076;-96
2022/10/05 08:17:57;;;;;;;4.93;1.30;;;15.60;99.90;;;;;;6258753;22;20093;-92
2022/10/05 08:20:37;;;;;;;3.20;1.50;;;15.70;99.90;;;;;;6258153;22;20015;-96
2022/10/05 08:23:24;;;;;;;3.03;1.23;;;15.70;99.90;;;;;;6259550;22;20026;-95
2022/10/05 08:26:23;;;;;;;1.90;0.82;;;15.70;99.90;;;;;;6259053;22;20015;-95
2022/10/05 08:29:07;;;;;;;2.95;1.00;;;15.70;99.90;;;;;;6259046;22;20057;-96
2022/10/05 08:31:39;;;;;;;2.10;0.95;;;15.70;99.90;;;;;;6259734;22;20019;-93
2022/10/05 08:34:17;;;;;;;1.95;0.80;;;15.70;99.90;;;;;;6257550;22;20015;-95
2022/10/05 08:37:11;;;;;;;2.42;0.90;;;15.80;99.90;;;;;;6260459;22;20022;-95
2022/10/05 08:40:14;;;;;;;1.90;0.98;;;15.80;99.90;;;;;;6258181;22;20026;-95
2022/10/05 08:43:00;;;;;;;1.88;0.90;;;15.90;99.90;;;;;;6257771;22;20045;-96
2022/10/05 08:45:52;;;;;;;1.52;0.80;;;15.90;99.90;;;;;;6258579;22;20016;-96
2022/10/05 08:48:57;;;;;;;1.85;0.75;;;16.00;99.90;;;;;;6258013;22;20023;-96
2022/10/05 08:51:59;;;;;;;3.03;0.90;;;16.00;99.90;;;;;;6259030;22;20026;-96
2022/10/05 08:54:32;;;;;;;2.63;1.00;;;16.00;99.90;;;;;;6257962;22;20098;-93
2022/10/05 08:57:10;;;;;;;2.17;0.90;;;16.00;99.90;;;;;;6259229;22;20149;-95
2022/10/05 09:00:04;;;;;;;2.22;0.80;;;16.10;99.90;;;;;;6256916;22;20463;-96
2022/10/05 09:02:44;;;;;;;2.03;0.80;;;16.10;99.90;;;;;;6258865;22;20105;-93
2022/10/05 09:05:47;;;;;;;2.67;1.10;;;16.10;99.90;;;;;;6258932;22;20015;-96
2022/10/05 09:08:31;;;;;;;1.92;0.80;;;16.10;99.90;;;;;;6257820;22;20023;-93
2022/10/05 09:11:04;;;;;;;3.85;1.20;;;16.10;99.90;;;;;;6257443;22;20054;-94
2022/10/05 09:14:02;;;;;;;2.28;1.00;;;16.10;99.90;;;;;;6258081;22;20098;-92
2022/10/05 09:16:33;;;;;;;3.42;0.95;;;16.20;99.90;;;;;;6198722;22;20470;-95
2022/10/05 09:19:25;;;;;;;3.10;1.08;;;16.20;99.90;;;;;;6259238;22;20050;-96
2022/10/05 09:22:33;;;;;;;2.88;1.20;;;16.30;99.90;;;;;;6189477;22;20433;-95
2022/10/05 09:25:22;;;;;;;2.03;1.00;;;16.30;99.90;;;;;;6240282;22;20015;-96
2022/10/05 09:27:48;;;;;;;2.63;1.20;;;16.30;99.90;;;;;;6258829;22;20015;-94
2022/10/05 09:30:39;;;;;;;2.45;1.10;;;16.40;99.90;;;;;;6257149;22;20524;-95
2022/10/05 09:33:38;;;;;;;2.45;1.30;;;16.40;99.90;;;;;;6258030;22;20077;-96
2022/10/05 09:36:23;;;;;;;2.78;1.00;;;16.40;99.90;;;;;;6258053;22;20019;-96
2022/10/05 09:38:51;;;;;;;2.25;0.95;;;16.40;99.90;;;;;;6259039;22;20019;-96
2022/10/05 09:41:17;;;;;;;2.58;1.10;;;16.50;99.90;;;;;;6258674;22;20017;-96
2022/10/05 09:44:04;;;;;;;1.92;0.90;;;16.50;99.90;;;;;;6258909;22;20050;-94
2022/10/05 09:47:07;;;;;;;2.38;1.13;;;16.50;99.90;;;;;;6260175;22;20019;-95
2022/10/05 09:50:03;;;;;;;2.33;0.95;;;16.50;99.90;;;;;;6254049;22;20022;-96
2022/10/05 09:52:47;;;;;;;3.25;1.40;;;16.50;99.90;;;;;;6258739;22;20016;-93
2022/10/05 09:55:32;;;;;;;5.75;1.30;;;16.60;99.90;;;;;;6258402;22;20067;-93
2022/10/05 09:57:58;;;;;;;2.85;1.27;;;16.60;99.90;;;;;;6286537;22;20015;-95
2022/10/05 10:00:35;;;;;;;4.20;1.17;;;16.70;99.90;;;;;;6258437;22;20019;-95
2022/10/05 10:03:17;;;;;;;2.05;0.98;;;16.70;99.90;;;;;;6258359;22;20038;-93
2022/10/05 10:05:55;;;;;;;2.67;1.10;;;16.70;99.90;;;;;;6257891;22;20460;-96
2022/10/05 10:08:43;;;;;;;3.65;1.27;;;16.70;99.90;;;;;;6261098;22;20073;-96
2022/10/05 10:11:39;;;;;;;2.90;1.20;;;16.70;99.90;;;;;;6283286;22;20003;-94
2022/10/05 10:14:34;;;;;;;2.65;1.10;;;16.70;99.90;;;;;;6271724;22;20011;-95
2022/10/05 10:17:06;;;;;;;2.55;1.20;;;16.80;99.90;;;;;;6201813;22;20015;-96
2022/10/05 10:19:55;;;;;;;4.00;0.90;;;16.80;99.90;;;;;;6259328;22;20016;-95
2022/10/05 10:22:29;;;;;;;4.15;1.52;;;16.80;99.90;;;;;;6260709;22;20098;-96
2022/10/05 10:25:30;;;;;;;2.72;1.40;;;16.80;99.90;;;;;;6260238;22;20015;-95
2022/10/05 10:28:17;;;;;;;2.38;1.20;;;16.80;99.90;;;;;;6260397;22;20011;-96
2022/10/05 10:31:10;;;;;;;3.13;1.45;;;16.80;99.90;;;;;;6285542;22;20022;-94
2022/10/05 10:34:07;;;;;;;3.08;1.30;;;16.80;99.90;;;;;;6284941;22;20073;-94
2022/10/05 10:36:48;;;;;;;2.47;1.13;;;16.80;99.90;;;;;;6259042;22;20018;-94
2022/10/05 10:39:40;;;;;;;3.13;1.40;;;16.80;99.90;;;;;;6258449;22;20016;-94
2022/10/05 10:42:28;;;;;;;2.67;1.38;;;16.70;99.90;;;;;;6259286;22;20015;-96
2022/10/05 10:45:15;;;;;;;2.85;1.30;;;16.70;99.90;;;;;;6285960;22;20052;-93
2022/10/05 10:47:49;;;;;;;2.70;1.40;;;16.70;99.90;;;;;;6266682;22;20068;-91
2022/10/05 10:50:49;;;;;;;2.92;1.20;;;16.60;99.90;;;;;;6262301;22;20021;-96
2022/10/05 10:53:45;;;;;;;3.10;1.50;;;16.60;99.90;;;;;;6257918;22;20022;-94
2022/10/05 10:56:45;;;;;;;2.13;1.23;;;16.60;99.90;;;;;;6258521;22;20019;-96
2022/10/05 10:59:36;;;;;;;3.30;1.60;;;16.60;99.90;;;;;;6259653;22;20047;-93
2022/10/05 11:02:26;;;;;;;2.95;1.45;;;16.60;99.90;;;;;;6259707;22;20102;-96
2022/10/05 11:05:11;;;;;;;4.55;1.50;;;16.50;99.90;;;;;;6258927;22;20467;-96
2022/10/05 11:08:12;;;;;;;3.47;1.35;;;16.50;99.90;;;;;;6258854;22;20011;-94
2022/10/05 11:10:38;;;;;;;4.10;1.80;;;16.50;99.90;;;;;;6258450;22;20062;-95
2022/10/05 11:13:20;;;;;;;3.40;1.63;;;16.50;99.90;;;;;;6258996;22;20015;-90
2022/10/05 11:16:18;;;;;;;3.83;1.50;;;16.50;99.90;;;;;;6259646;22;20012;-92
2022/10/05 11:18:59;;;;;;;3.53;1.50;;;16.50;99.90;;;;;;6244434;22;20097;-94
2022/10/05 11:22:01;;;;;;;3.08;1.60;;;16.50;99.90;;;;;;6259477;22;20015;-95
2022/10/05 11:25:01;;;;;;;3.25;1.50;;;16.50;99.90;;;;;;6257543;22;20016;-93
2022/10/05 11:27:45;;;;;;;3.10;1.50;;;16.50;99.90;;;;;;6258395;22;20046;-93
2022/10/05 11:30:31;;;;;;;3.25;1.80;;;16.50;99.90;;;;;;6258451;22;20026;-96
2022/10/05 11:33:12;;;;;;;3.42;1.88;;;16.50;99.90;;;;;;6258122;22;20022;-95
2022/10/05 11:35:48;;;;;;;3.80;1.90;;;16.50;99.90;;;;;;6257944;22;20040;-96
2022/10/05 11:38:41;;;;;;;3.72;1.58;;;16.40;99.90;;;;;;6258263;22;20467;-93
2022/10/05 11:41:18;;;;;;;2.53;1.50;;;16.40;99.90;;;;;;6232693;22;20015;-93
2022/10/05 11:43:44;;;;;;;4.35;1.55;;;16.40;99.90;;;;;;6257920;22;20448;-94
2022/10/05 11:46:19;;;;;;;2.92;1.58;;;16.40;99.90;;;;;;6257625;22;20030;-96
2022/10/05 11:49:03;;;;;;;2.38;1.40;;;16.40;99.90;;;;;;6257674;22;20015;-96
2022/10/05 11:51:42;;;;;;;2.92;1.70;;;16.40;99.90;;;;;;6258229;22;20016;-95
2022/10/05 11:54:08;;;;;;;3.20;1.77;;;16.40;99.90;;;;;;6258023;22;20022;-95
2022/10/05 11:56:50;;;;;;;4.57;1.50;;;16.40;99.90;;;;;;6257545;22;20348;-92
2022/10/05 11:59:38;;;;;;;2.90;1.40;;;16.40;99.90;;;;;;6258506;22;20344;-96
2022/10/05 12:02:26;;;;;;;3.97;1.60;;;16.40;99.90;;;;;;6257238;22;20023;-96
2022/10/05 12:05:10;;;;;;;4.53;1.73;;;16.40;99.90;;;;;;6257180;22;20019;-93
2022/10/05 12:07:52;;;;;;;3.13;1.55;;;16.40;99.90;;;;;;6257553;22;20015;-96
2022/10/05 12:10:31;;;;;;;3.45;1.60;;;16.40;99.90;;;;;;6257878;22;20026;-90
2022/10/05 12:13:20;;;;;;;3.08;1.50;;;16.40;99.90;;;;;;6256841;22;20015;-95
2022/10/05 12:15:58;;;;;;;3.58;1.70;;;16.40;99.90;;;;;;6260003;22;20015;-94
2022/10/05 12:18:30;;;;;;;2.90;1.50;;;16.40;99.90;;;;;;6261760;22;20460;-96
2022/10/05 12:21:03;;;;;;;3.30;1.60;;;16.40;99.90;;;;;;6257070;22;20026;-95
2022/10/05 12:23:40;;;;;;;3.25;1.70;;;16.40;99.90;;;;;;6257197;22;20015;-95
2022/10/05 12:26:35;;;;;;;2.45;1.50;;;16.50;99.90;;;;;;6257338;22;20021;-95
2022/10/05 12:29:12;;;;;;;2.95;1.55;;;16.50;99.90;;;;;;6257434;22;20021;-96
2022/10/05 12:31:37;;;;;;;3.33;1.58;;;16.40;99.90;;;;;;6256828;22;20012;-95
2022/10/05 12:34:18;;;;;;;2.80;1.33;;;16.50;99.90;;;;;;6282486;22;20050;-93
2022/10/05 12:37:10;;;;;;;2.72;1.40;;;16.50;99.90;;;;;;6257243;22;20062;-91
2022/10/05 12:39:54;;;;;;;3.50;1.60;;;16.50;99.90;;;;;;6200070;22;20098;-95
2022/10/05 12:42:49;;;;;;;2.33;1.30;;;16.50;99.90;;;;;;6282563;22;20015;-94
2022/10/05 12:45:42;;;;;;;3.28;1.60;;;16.50;99.90;;;;;;6190168;22;20352;-92
2022/10/05 12:48:51;;;;;;;2.83;1.50;;;16.60;99.90;;;;;;6257153;22;20071;-95
2022/10/05 12:51:41;;;;;;;2.60;1.58;;;16.60;99.90;;;;;;6286380;22;20026;-95
2022/10/05 12:54:31;;;;;;;2.85;1.73;;;16.60;99.90;;;;;;6283746;22;20051;-92
2022/10/05 12:57:04;;;;;;;2.92;1.50;;;16.60;99.90;;;;;;6273014;22;20019;-94
2022/10/05 12:59:43;;;;;;;3.47;1.90;;;16.60;99.90;;;;;;6256689;22;20527;-95
2022/10/05 13:02:27;;;;;;;2.80;1.63;;;16.60;99.90;;;;;;6256312;22;20019;-92
2022/10/05 13:05:08;;;;;;;3.65;1.40;;;16.60;99.90;;;;;;6256859;22;20457;-95
2022/10/05 13:07:46;;;;;;;3.47;1.25;;;16.60;99.90;;;;;;6257177;22;20023;-93
2022/10/05 13:10:57;;;;;;;4.22;2.13;;;16.60;99.90;;;;;;6257404;22;20043;-96
2022/10/05 13:13:33;;;;;;;2.75;1.25;;;16.60;99.90;;;;;;6106721;23;20049;-96
2022/10/05 13:16:03;;;;;;;;;;;16.60;99.90;;;;;;6107519;23;20018;-93
2022/10/05 13:18:40;;;;;;;3.47;1.40;;;16.60;99.90;;;;;;6217112;22;19910;-95
2022/10/05 13:21:21;;;;;;;3.20;1.60;;;16.60;99.90;;;;;;6256783;22;20019;-94
2022/10/05 13:23:57;;;;;;;3.33;1.65;;;16.60;99.90;;;;;;6256317;22;20018;-94
2022/10/05 13:26:39;;;;;;;2.92;1.60;;;16.60;99.90;;;;;;6256371;22;20026;-95
2022/10/05 13:29:21;;;;;;;3.67;1.80;;;16.60;99.90;;;;;;6282485;22;20012;-93
2022/10/05 13:32:01;;;;;;;4.95;1.80;;;16.70;99.90;;;;;;6282604;22;20056;-94
2022/10/05 13:34:44;;;;;;;4.68;2.22;;;16.70;99.90;;;;;;6257074;22;20015;-93
2022/10/05 13:37:50;;;;;;;3.53;1.75;;;16.80;99.90;;;;;;6282625;22;20639;-94
2022/10/05 13:40:23;;;;;;;3.63;1.40;;;16.80;99.90;;;;;;6256980;22;20608;-96
2022/10/05 13:43:33;;;;;;;3.88;1.80;;;16.80;99.90;;;;;;6256530;22;20038;-91
2022/10/05 13:46:10;;;;;;;3.10;1.67;;;16.80;99.90;;;;;;6255263;22;20011;-93
2022/10/05 13:49:00;;;;;;;5.30;2.00;;;16.80;99.90;;;;;;6255592;22;20022;-92
2022/10/05 14:13:26;;;;;;;3.08;1.63;;;17.10;99.90;;;;;;6298248;22;20046;-92
2022/10/05 14:16:21;;;;;;;4.07;1.63;;;17.20;99.90;;;;;;6254760;22;20015;-94
2022/10/05 14:19:04;;;;;;;3.45;1.85;;;17.20;99.90;;;;;;6279604;22;20054;-93
2022/10/05 14:21:41;;;;;;;4.25;1.73;;;17.20;99.90;;;;;;6256443;22;20398;-94
2022/10/05 14:24:25;;;;;;;;;;;17.20;99.90;;;;;;6256627;22;20011;-93
2022/10/05 14:27:26;;;;;;;4.70;1.80;;;17.20;99.90;;;;;;6257168;22;20037;-94
2022/10/05 14:30:29;;;;;;;3.35;1.40;;;17.20;99.90;;;;;;6256652;22;20097;-93
2022/10/05 14:33:02;;;;;;;2.95;1.40;;;17.20;99.90;;;;;;6106085;23;20093;-94
2022/10/05 14:35:48;;;;;;;3.75;1.77;;;17.20;99.90;;;;;;6233299;22;20043;-89
2022/10/05 14:38:28;;;;;;;3.30;1.60;;;17.20;99.90;;;;;;6255994;22;20080;-92
2022/10/05 14:54:43;;;;;;;4.20;1.52;;;17.10;99.90;;;;;;6275600;22;20024;-94
2022/10/05 15:05:14;;;;;;;3.63;1.90;;;17.00;99.90;;;;;;6307338;22;20077;-92
2022/10/05 15:07:50;;;;;;;6.38;1.80;;;17.10;99.90;;;;;;6245941;23;20020;-91
2022/10/05 15:10:49;;;;;;;4.45;1.95;;;17.00;99.90;;;;;;6194736;23;20102;-94